^^
Grace C. Lehan Memorial Weather Station Historical Data
Daily Summary for July 18, 2021 Units:  Both    English   Metric
Daily Weekly Monthly Yearly
  High: Low: Average:
Temperature: 83.9 °F /  28.8 °C 51.7 °F /  10.9 °C 69.2 °F /  20.7 °C
Dew Point: 56 °F /  13.3 °C 47.4 °F /  8.6 °C 50.3 °F /  10.2 °C
Humidity: 87% 28.7% 56%
Wind Speed: 9mph /  14.5km/h - 1.6mph /  2.6km/h
Wind Gust: 21mph /  33.8km/h - -
Wind- - WNW
Pressure: 30.27 in /  1024.9 hPa 30.12 in /  1019.9 hPa -
Precipitation: 0.00 in /  0 mm    
 
 
Tabular Data for July 18, 2021
Time Temperature Dew Point Pressure Wind Wind Speed Wind Gust Humidity Rainfall Rate (Hourly) solar
00:00 57.4 °F /  14.1 °C 49.9 °F /  9.9 °C 30.24in /  1023.9hPa Calm     76% 0.00in /  0mm 0 W/m2
00:09 57.3 °F /  14.1 °C 50 °F /  10 °C 30.25in /  1024.3hPa Calm     76.4% 0.00in /  0mm 0 W/m2
00:14 57.3 °F /  14.1 °C 49.8 °F /  9.9 °C 30.25in /  1024.3hPa Calm     76% 0.00in /  0mm 0 W/m2
00:19 57.2 °F /  14 °C 50 °F /  10 °C 30.25in /  1024.3hPa Calm     76.7% 0.00in /  0mm 0 W/m2
00:24 57.1 °F /  13.9 °C 49.9 °F /  9.9 °C 30.24in /  1023.9hPa Calm     77% 0.00in /  0mm 0 W/m2
00:29 56.9 °F /  13.8 °C 49.8 °F /  9.9 °C 30.24in /  1023.9hPa Calm     77% 0.00in /  0mm 0 W/m2
00:34 56.8 °F /  13.8 °C 50 °F /  10 °C 30.24in /  1023.9hPa Calm     78% 0.00in /  0mm 0 W/m2
00:39 56.6 °F /  13.7 °C 49.8 °F /  9.9 °C 30.24in /  1023.9hPa Calm     77.9% 0.00in /  0mm 0 W/m2
00:44 56.5 °F /  13.6 °C 49.5 °F /  9.7 °C 30.24in /  1023.9hPa Calm     77.6% 0.00in /  0mm 0 W/m2
00:49 56.4 °F /  13.6 °C 49.6 °F /  9.8 °C 30.24in /  1023.9hPa Calm     78% 0.00in /  0mm 0 W/m2
00:54 56.4 °F /  13.6 °C 49.7 °F /  9.8 °C 30.24in /  1023.9hPa Calm     78% 0.00in /  0mm 0 W/m2
00:59 56.4 °F /  13.6 °C 49.7 °F /  9.8 °C 30.24in /  1023.9hPa Calm     78% 0.00in /  0mm 0 W/m2
01:04 56.4 °F /  13.6 °C 49.6 °F /  9.8 °C 30.24in /  1023.9hPa Calm     77.8% 0.00in /  0mm 0 W/m2
01:09 56.4 °F /  13.6 °C 49.3 °F /  9.6 °C 30.24in /  1023.9hPa Calm     77% 0.00in /  0mm 0 W/m2
01:14 56.4 °F /  13.6 °C 49.3 °F /  9.6 °C 30.24in /  1023.9hPa Calm     77% 0.00in /  0mm 0 W/m2
01:19 56.4 °F /  13.6 °C 49.3 °F /  9.6 °C 30.24in /  1023.9hPa Calm     77% 0.00in /  0mm 0 W/m2
01:24 56.3 °F /  13.5 °C 49.2 °F /  9.6 °C 30.24in /  1023.9hPa Calm     77% 0.00in /  0mm 0 W/m2
01:29 56.2 °F /  13.4 °C 49.1 °F /  9.5 °C 30.24in /  1023.9hPa Calm     77% 0.00in /  0mm 0 W/m2
01:34 56.2 °F /  13.4 °C 49.1 °F /  9.5 °C 30.24in /  1023.9hPa Calm     77% 0.00in /  0mm 0 W/m2
01:39 56.2 °F /  13.4 °C 49.1 °F /  9.5 °C 30.24in /  1023.9hPa Calm     77% 0.00in /  0mm 0 W/m2
01:44 56.1 °F /  13.4 °C 49.1 °F /  9.5 °C 30.23in /  1023.6hPa Calm     77.1% 0.00in /  0mm 0 W/m2
01:49 56 °F /  13.3 °C 49.3 °F /  9.6 °C 30.23in /  1023.6hPa Calm     78% 0.00in /  0mm 0 W/m2
01:54 55.9 °F /  13.3 °C 49.2 °F /  9.6 °C 30.23in /  1023.6hPa Calm     78% 0.00in /  0mm 0 W/m2
01:59 55.8 °F /  13.2 °C 49.1 °F /  9.5 °C 30.23in /  1023.6hPa Calm     78% 0.00in /  0mm 0 W/m2
02:04 55.8 °F /  13.2 °C 49 °F /  9.4 °C 30.23in /  1023.6hPa Calm     78% 0.00in /  0mm 0 W/m2
02:09 55.6 °F /  13.1 °C 48.9 °F /  9.4 °C 30.23in /  1023.6hPa Calm     78% 0.00in /  0mm 0 W/m2
02:14 55.4 °F /  13 °C 48.9 °F /  9.4 °C 30.23in /  1023.6hPa Calm     78.5% 0.00in /  0mm 0 W/m2
02:19 55.2 °F /  12.9 °C 48.9 °F /  9.4 °C 30.23in /  1023.6hPa Calm     79% 0.00in /  0mm 0 W/m2
02:24 55.1 °F /  12.8 °C 48.7 °F /  9.3 °C 30.23in /  1023.6hPa Calm     79% 0.00in /  0mm 0 W/m2
02:29 54.9 °F /  12.7 °C 48.5 °F /  9.2 °C 30.23in /  1023.6hPa Calm     79% 0.00in /  0mm 0 W/m2
02:34 54.7 °F /  12.6 °C 48.4 °F /  9.1 °C 30.23in /  1023.6hPa Calm     79% 0.00in /  0mm 0 W/m2
02:39 54.6 °F /  12.6 °C 48.2 °F /  9 °C 30.23in /  1023.6hPa Calm     79% 0.00in /  0mm 0 W/m2
02:44 54.5 °F /  12.5 °C 48.1 °F /  8.9 °C 30.23in /  1023.6hPa Calm     79.1% 0.00in /  0mm 0 W/m2
02:49 54.3 °F /  12.4 °C 48.3 °F /  9.1 °C 30.23in /  1023.6hPa Calm     80% 0.00in /  0mm 0 W/m2
02:54 54.2 °F /  12.3 °C 48.3 °F /  9.1 °C 30.22in /  1023.2hPa Calm     80.3% 0.00in /  0mm 0 W/m2
02:59 54.1 °F /  12.3 °C 48.3 °F /  9.1 °C 30.22in /  1023.2hPa Calm     80.7% 0.00in /  0mm 0 W/m2
03:04 54 °F /  12.2 °C 48.1 °F /  8.9 °C 30.22in /  1023.2hPa Calm     80.3% 0.00in /  0mm 0 W/m2
03:09 53.9 °F /  12.2 °C 48.2 °F /  9 °C 30.22in /  1023.2hPa Calm     81% 0.00in /  0mm 0 W/m2
03:14 53.8 °F /  12.1 °C 48.1 °F /  8.9 °C 30.22in /  1023.2hPa Calm     81% 0.00in /  0mm 0 W/m2
03:19 53.7 °F /  12.1 °C 48.2 °F /  9 °C 30.22in /  1023.2hPa Calm     81.6% 0.00in /  0mm 0 W/m2
03:24 53.7 °F /  12.1 °C 48.3 °F /  9.1 °C 30.22in /  1023.2hPa Calm     82% 0.00in /  0mm 0 W/m2
03:29 53.6 °F /  12 °C 48.2 °F /  9 °C 30.22in /  1023.2hPa Calm     81.8% 0.00in /  0mm 0 W/m2
03:34 53.5 °F /  11.9 °C 47.9 °F /  8.8 °C 30.22in /  1023.2hPa Calm     81% 0.00in /  0mm 0 W/m2
03:39 53.5 °F /  11.9 °C 47.8 °F /  8.8 °C 30.22in /  1023.2hPa Calm     81% 0.00in /  0mm 0 W/m2
03:44 53.4 °F /  11.9 °C 48 °F /  8.9 °C 30.22in /  1023.2hPa Calm     81.7% 0.00in /  0mm 0 W/m2
03:49 53.4 °F /  11.9 °C 48 °F /  8.9 °C 30.22in /  1023.2hPa Calm     82% 0.00in /  0mm 0 W/m2
03:54 53.3 °F /  11.8 °C 48 °F /  8.9 °C 30.22in /  1023.2hPa Calm     82% 0.00in /  0mm 0 W/m2
03:59 53.2 °F /  11.8 °C 47.9 °F /  8.8 °C 30.22in /  1023.2hPa Calm     82% 0.00in /  0mm 0 W/m2
04:00 53.2 °F /  11.8 °C 47.9 °F /  8.8 °C 30.22in /  1023.2hPa Calm     82% 0.00in /  0mm 0 W/m2
04:09 52.9 °F /  11.6 °C 47.9 °F /  8.8 °C 30.22in /  1023.2hPa Calm     83% 0.00in /  0mm 0 W/m2
04:14 52.7 °F /  11.5 °C 47.9 °F /  8.8 °C 30.22in /  1023.2hPa Calm     83.7% 0.00in /  0mm 0 W/m2
04:19 52.4 °F /  11.3 °C 47.7 °F /  8.7 °C 30.22in /  1023.2hPa Calm     84% 0.00in /  0mm 0 W/m2
04:24 52.2 °F /  11.2 °C 47.8 °F /  8.8 °C 30.22in /  1023.2hPa Calm     84.7% 0.00in /  0mm 0 W/m2
04:29 52.1 °F /  11.2 °C 47.8 °F /  8.8 °C 30.23in /  1023.6hPa Calm     85% 0.00in /  0mm 0 W/m2
04:34 52 °F /  11.1 °C 48 °F /  8.9 °C 30.23in /  1023.6hPa Calm     85.9% 0.00in /  0mm 0 W/m2
04:39 51.9 °F /  11.1 °C 47.9 °F /  8.8 °C 30.23in /  1023.6hPa Calm     86% 0.00in /  0mm 0 W/m2
04:44 51.8 °F /  11 °C 47.8 °F /  8.8 °C 30.23in /  1023.6hPa Calm     86% 0.00in /  0mm 0 W/m2
04:49 51.8 °F /  11 °C 47.8 °F /  8.8 °C 30.23in /  1023.6hPa Calm     86.2% 0.00in /  0mm 0 W/m2
04:54 51.7 °F /  10.9 °C 47.9 °F /  8.8 °C 30.23in /  1023.6hPa Calm     86.7% 0.00in /  0mm 0 W/m2
04:59 51.7 °F /  10.9 °C 48 °F /  8.9 °C 30.23in /  1023.6hPa Calm     87% 0.00in /  0mm 0 W/m2
05:04 51.8 °F /  11 °C 48.1 °F /  8.9 °C 30.23in /  1023.6hPa Calm     87% 0.00in /  0mm 0 W/m2
05:09 51.9 °F /  11.1 °C 48.1 °F /  8.9 °C 30.23in /  1023.6hPa Calm     87% 0.00in /  0mm 0 W/m2
05:14 52.1 °F /  11.2 °C 48.3 °F /  9.1 °C 30.23in /  1023.6hPa Calm     87% 0.00in /  0mm 0 W/m2
05:19 52.2 °F /  11.2 °C 48.4 °F /  9.1 °C 30.23in /  1023.6hPa Calm     86.8% 0.00in /  0mm 0 W/m2
05:24 52.4 °F /  11.3 °C 48.4 °F /  9.1 °C 30.23in /  1023.6hPa Calm     86% 0.00in /  0mm 0 W/m2
05:29 52.6 °F /  11.4 °C 48.5 °F /  9.2 °C 30.23in /  1023.6hPa Calm     86% 0.00in /  0mm 0 W/m2
05:34 52.6 °F /  11.4 °C 48.5 °F /  9.2 °C 30.23in /  1023.6hPa Calm     86% 0.00in /  0mm 0 W/m2
05:39 52.6 °F /  11.4 °C 48.5 °F /  9.2 °C 30.23in /  1023.6hPa Calm     86% 0.00in /  0mm 0 W/m2
05:44 52.6 °F /  11.4 °C 48.5 °F /  9.2 °C 30.23in /  1023.6hPa Calm     85.9% 0.00in /  0mm 7 W/m2
05:49 52.5 °F /  11.4 °C 48.3 °F /  9.1 °C 30.23in /  1023.6hPa Calm     85.4% 0.00in /  0mm 9 W/m2
05:54 52.4 °F /  11.3 °C 48.3 °F /  9.1 °C 30.24in /  1023.9hPa Calm     86% 0.00in /  0mm 12 W/m2
05:59 52.4 °F /  11.3 °C 48.3 °F /  9.1 °C 30.24in /  1023.9hPa Calm     86% 0.00in /  0mm 19 W/m2
06:04 52.4 °F /  11.3 °C 48.4 °F /  9.1 °C 30.24in /  1023.9hPa Calm     86% 0.00in /  0mm 19 W/m2
06:09 52.6 °F /  11.4 °C 48.3 °F /  9.1 °C 30.24in /  1023.9hPa Calm     85.3% 0.00in /  0mm 19 W/m2
06:14 52.8 °F /  11.6 °C 48.4 °F /  9.1 °C 30.25in /  1024.3hPa Calm     85% 0.00in /  0mm 18 W/m2
06:19 52.9 °F /  11.6 °C 48.5 °F /  9.2 °C 30.25in /  1024.3hPa Calm     85% 0.00in /  0mm 26 W/m2
06:24 53 °F /  11.7 °C 48.6 °F /  9.2 °C 30.25in /  1024.3hPa Calm     85% 0.00in /  0mm 28 W/m2
06:29 53.1 °F /  11.7 °C 48.7 °F /  9.3 °C 30.25in /  1024.3hPa Calm     85% 0.00in /  0mm 33 W/m2
06:34 53.2 °F /  11.8 °C 48.8 °F /  9.3 °C 30.25in /  1024.3hPa Calm     85% 0.00in /  0mm 72 W/m2
06:39 53.5 °F /  11.9 °C 49.2 °F /  9.6 °C 30.25in /  1024.3hPa Calm     85.5% 0.00in /  0mm 84 W/m2
06:44 54 °F /  12.2 °C 49.8 °F /  9.9 °C 30.25in /  1024.3hPa Calm     85.5% 0.00in /  0mm 91 W/m2
06:49 54.8 °F /  12.7 °C 50.4 °F /  10.2 °C 30.25in /  1024.3hPa Calm     85% 0.00in /  0mm 130 W/m2
06:54 55.7 °F /  13.2 °C 50.7 °F /  10.4 °C 30.25in /  1024.3hPa Calm     83.4% 0.00in /  0mm 202 W/m2
06:59 56.7 °F /  13.7 °C 51 °F /  10.6 °C 30.26in /  1024.6hPa Calm     81.1% 0.00in /  0mm 199 W/m2
07:04 57.6 °F /  14.2 °C 51.2 °F /  10.7 °C 30.26in /  1024.6hPa Calm     79.1% 0.00in /  0mm 167 W/m2
07:09 58.7 °F /  14.8 °C 51.8 °F /  11 °C 30.26in /  1024.6hPa Calm     77.6% 0.00in /  0mm 216 W/m2
07:14 59.7 °F /  15.4 °C 52 °F /  11.1 °C 30.26in /  1024.6hPa Calm     75.7% 0.00in /  0mm 269 W/m2
07:19 60.6 °F /  15.9 °C 52.3 °F /  11.3 °C 30.26in /  1024.6hPa Calm     74% 0.00in /  0mm 285 W/m2
07:24 61.4 °F /  16.3 °C 52.8 °F /  11.6 °C 30.27in /  1024.9hPa Calm     73.4% 0.00in /  0mm 302 W/m2
07:29 62.3 °F /  16.8 °C 52.8 °F /  11.6 °C 30.27in /  1024.9hPa Calm     71.1% 0.00in /  0mm 323 W/m2
07:34 63 °F /  17.2 °C 52.9 °F /  11.6 °C 30.26in /  1024.6hPa Calm     69.5% 0.00in /  0mm 345 W/m2
07:39 63.8 °F /  17.7 °C 53.4 °F /  11.9 °C 30.26in /  1024.6hPa Calm     68.9% 0.00in /  0mm 357 W/m2
07:44 64.7 °F /  18.2 °C 53.9 °F /  12.2 °C 30.26in /  1024.6hPa Calm     68% 0.00in /  0mm 378 W/m2
07:49 65.6 °F /  18.7 °C 54.6 °F /  12.6 °C 30.26in /  1024.6hPa Calm     67.5% 0.00in /  0mm 410 W/m2
07:54 66.6 °F /  19.2 °C 54.9 °F /  12.7 °C 30.26in /  1024.6hPa Calm     66.2% 0.00in /  0mm 438 W/m2
07:59 67.4 °F /  19.7 °C 54.8 °F /  12.7 °C 30.26in /  1024.6hPa Calm     64% 0.00in /  0mm 439 W/m2
08:00 67.8 °F /  19.9 °C 55.2 °F /  12.9 °C 30.26in /  1024.6hPa Calm     64% 0.00in /  0mm 436 W/m2
08:09 68.7 °F /  20.4 °C 54.8 °F /  12.7 °C 30.26in /  1024.6hPa Calm     61.2% 0.00in /  0mm 466 W/m2
08:14 69.2 °F /  20.7 °C 55.2 °F /  12.9 °C 30.26in /  1024.6hPa Calm     61% 0.00in /  0mm 490 W/m2
08:19 69.6 °F /  20.9 °C 54.4 °F /  12.4 °C 30.26in /  1024.6hPa Calm     58.3% 0.00in /  0mm 534 W/m2
08:24 69.8 °F /  21 °C 53.4 °F /  11.9 °C 30.26in /  1024.6hPa Calm     55.9% 0.00in /  0mm 534 W/m2
08:29 70 °F /  21.1 °C 53.7 °F /  12.1 °C 30.26in /  1024.6hPa Calm     56.3% 0.00in /  0mm 629 W/m2
08:34 70.2 °F /  21.2 °C 54.6 °F /  12.6 °C 30.27in /  1024.9hPa Calm     57.9% 0.00in /  0mm 642 W/m2
08:39 70.7 °F /  21.5 °C 55.1 °F /  12.8 °C 30.27in /  1024.9hPa Calm     57.8% 0.00in /  0mm 668 W/m2
08:44 71.5 °F /  21.9 °C 55.4 °F /  13 °C 30.27in /  1024.9hPa Calm     56.8% 0.00in /  0mm 687 W/m2
08:49 72.2 °F /  22.3 °C 55.1 °F /  12.8 °C 30.27in /  1024.9hPa Calm     54.7% 0.00in /  0mm 691 W/m2
08:54 72.7 °F /  22.6 °C 53.9 °F /  12.2 °C 30.27in /  1024.9hPa WSW 0.7mph /  1.1km/h 4mph /  6.4km/h 51.6% 0.00in /  0mm 664 W/m2
08:59 72.9 °F /  22.7 °C 54.5 °F /  12.5 °C 30.27in /  1024.9hPa Calm   4mph /  6.4km/h 52.5% 0.00in /  0mm 381 W/m2
09:04 73.2 °F /  22.9 °C 55.1 °F /  12.8 °C 30.27in /  1024.9hPa Calm   4mph /  6.4km/h 53% 0.00in /  0mm 763 W/m2
09:09 73.8 °F /  23.2 °C 55.1 °F /  12.8 °C 30.27in /  1024.9hPa Calm     52.1% 0.00in /  0mm 759 W/m2
09:14 74.3 °F /  23.5 °C 55.3 °F /  12.9 °C 30.27in /  1024.9hPa Calm     51.7% 0.00in /  0mm 508 W/m2
09:19 74.5 °F /  23.6 °C 56 °F /  13.3 °C 30.27in /  1024.9hPa Calm     52.5% 0.00in /  0mm 506 W/m2
09:24 74.4 °F /  23.6 °C 54.3 °F /  12.4 °C 30.27in /  1024.9hPa West 0.5mph /  0.8km/h 4mph /  6.4km/h 49.5% 0.00in /  0mm 591 W/m2
09:29 74.3 °F /  23.5 °C 54.1 °F /  12.3 °C 30.27in /  1024.9hPa NE 0.3mph /  0.5km/h 4mph /  6.4km/h 49.4% 0.00in /  0mm 777 W/m2
09:34 74.8 °F /  23.8 °C 54.7 °F /  12.6 °C 30.26in /  1024.6hPa Calm   4mph /  6.4km/h 49.6% 0.00in /  0mm 777 W/m2
09:39 75.5 °F /  24.2 °C 54.2 °F /  12.3 °C 30.26in /  1024.6hPa West 2.4mph /  3.9km/h 10mph /  16.1km/h 47.6% 0.00in /  0mm 545 W/m2
09:44 75.7 °F /  24.3 °C 53.7 °F /  12.1 °C 30.26in /  1024.6hPa WNW 0.8mph /  1.3km/h 10mph /  16.1km/h 46.4% 0.00in /  0mm 888 W/m2
09:49 76.2 °F /  24.6 °C 55 °F /  12.8 °C 30.26in /  1024.6hPa WNW 0.7mph /  1.1km/h 10mph /  16.1km/h 47.8% 0.00in /  0mm 891 W/m2
09:54 77 °F /  25 °C 54.9 °F /  12.7 °C 30.26in /  1024.6hPa WNW 0.6mph /  1km/h 10mph /  16.1km/h 46.5% 0.00in /  0mm 907 W/m2
09:59 77.6 °F /  25.3 °C 54.1 °F /  12.3 °C 30.26in /  1024.6hPa WNW 3.8mph /  6.1km/h 11mph /  17.7km/h 44.2% 0.00in /  0mm 907 W/m2
10:04 77.9 °F /  25.5 °C 53.6 °F /  12 °C 30.26in /  1024.6hPa WNW 2.6mph /  4.2km/h 11mph /  17.7km/h 43% 0.00in /  0mm 791 W/m2
10:09 78 °F /  25.6 °C 53.4 °F /  11.9 °C 30.25in /  1024.3hPa West 3.2mph /  5.1km/h 11mph /  17.7km/h 42.5% 0.00in /  0mm 798 W/m2
10:14 78.3 °F /  25.7 °C 53.3 °F /  11.8 °C 30.25in /  1024.3hPa WNW 0.8mph /  1.3km/h 11mph /  17.7km/h 42% 0.00in /  0mm 803 W/m2
10:19 78.7 °F /  25.9 °C 53.4 °F /  11.9 °C 30.25in /  1024.3hPa WNW 1.3mph /  2.1km/h 11mph /  17.7km/h 41.6% 0.00in /  0mm 821 W/m2
10:24 79.2 °F /  26.2 °C 54.3 °F /  12.4 °C 30.25in /  1024.3hPa WNW 0.4mph /  0.6km/h 11mph /  17.7km/h 42.3% 0.00in /  0mm 830 W/m2
10:29 79.7 °F /  26.5 °C 54.1 °F /  12.3 °C 30.25in /  1024.3hPa WNW 0.9mph /  1.4km/h 11mph /  17.7km/h 41.3% 0.00in /  0mm 846 W/m2
10:34 80.1 °F /  26.7 °C 55 °F /  12.8 °C 30.25in /  1024.3hPa NNW 0.8mph /  1.3km/h 11mph /  17.7km/h 42.1% 0.00in /  0mm 854 W/m2
10:39 80.5 °F /  26.9 °C 53.8 °F /  12.1 °C 30.25in /  1024.3hPa WNW 3.1mph /  5km/h 10mph /  16.1km/h 39.9% 0.00in /  0mm 868 W/m2
10:44 80.6 °F /  27 °C 54 °F /  12.2 °C 30.25in /  1024.3hPa NW 3.3mph /  5.3km/h 10mph /  16.1km/h 39.9% 0.00in /  0mm 872 W/m2
10:49 80.7 °F /  27.1 °C 54.2 °F /  12.3 °C 30.25in /  1024.3hPa WNW 0.8mph /  1.3km/h 10mph /  16.1km/h 40% 0.00in /  0mm 886 W/m2
10:54 81.1 °F /  27.3 °C 54.3 °F /  12.4 °C 30.25in /  1024.3hPa WNW 2.7mph /  4.3km/h 10mph /  16.1km/h 39.8% 0.00in /  0mm 874 W/m2
10:59 81.3 °F /  27.4 °C 54.3 °F /  12.4 °C 30.24in /  1023.9hPa Calm   10mph /  16.1km/h 39.4% 0.00in /  0mm 863 W/m2
11:04 81.7 °F /  27.6 °C 54.9 °F /  12.7 °C 30.24in /  1023.9hPa Calm   10mph /  16.1km/h 39.8% 0.00in /  0mm 884 W/m2
11:09 82.1 °F /  27.8 °C 54.4 °F /  12.4 °C 30.24in /  1023.9hPa WNW 2.3mph /  3.7km/h 11mph /  17.7km/h 38.6% 0.00in /  0mm 881 W/m2
11:14 82.3 °F /  27.9 °C 54.4 °F /  12.4 °C 30.24in /  1023.9hPa WNW 2.2mph /  3.5km/h 11mph /  17.7km/h 38.4% 0.00in /  0mm 930 W/m2
11:19 82.5 °F /  28.1 °C 51.6 °F /  10.9 °C 30.24in /  1023.9hPa WNW 5.7mph /  9.2km/h 18mph /  29km/h 34.4% 0.00in /  0mm 930 W/m2
11:24 82.4 °F /  28 °C 51.3 °F /  10.7 °C 30.24in /  1023.9hPa WNW 4.7mph /  7.6km/h 18mph /  29km/h 34.1% 0.00in /  0mm 914 W/m2
11:29 82.2 °F /  27.9 °C 50.8 °F /  10.4 °C 30.24in /  1023.9hPa NW 4.1mph /  6.6km/h 18mph /  29km/h 33.6% 0.00in /  0mm 919 W/m2
11:34 82.1 °F /  27.8 °C 51.7 °F /  10.9 °C 30.24in /  1023.9hPa NW 3.2mph /  5.1km/h 18mph /  29km/h 34.9% 0.00in /  0mm 942 W/m2
11:39 82.3 °F /  27.9 °C 52.1 °F /  11.2 °C 30.24in /  1023.9hPa NW 2.9mph /  4.7km/h 14mph /  22.5km/h 35.3% 0.00in /  0mm 953 W/m2
11:44 82.5 °F /  28.1 °C 52.1 °F /  11.2 °C 30.24in /  1023.9hPa NW 1.8mph /  2.9km/h 14mph /  22.5km/h 35% 0.00in /  0mm 949 W/m2
11:49 82.7 °F /  28.2 °C 51.8 °F /  11 °C 30.24in /  1023.9hPa West 4.6mph /  7.4km/h 14mph /  22.5km/h 34.4% 0.00in /  0mm 970 W/m2
11:54 82.9 °F /  28.3 °C 52.5 °F /  11.4 °C 30.24in /  1023.9hPa West 1.3mph /  2.1km/h 14mph /  22.5km/h 35.2% 0.00in /  0mm 972 W/m2
11:59 83.2 °F /  28.4 °C 51.2 °F /  10.7 °C 30.24in /  1023.9hPa WNW 5.1mph /  8.2km/h 14mph /  22.5km/h 33.2% 0.00in /  0mm 976 W/m2
12:00 83.2 °F /  28.4 °C 50.3 °F /  10.2 °C 30.23in /  1023.6hPa West 9mph /  14.5km/h 14mph /  22.5km/h 32% 0.00in /  0mm 976 W/m2
12:09 82.9 °F /  28.3 °C 49.9 °F /  9.9 °C 30.24in /  1023.9hPa WNW 6.3mph /  10.1km/h 17mph /  27.4km/h 31.8% 0.00in /  0mm 990 W/m2
12:14 82.5 °F /  28.1 °C 49.9 °F /  9.9 °C 30.23in /  1023.6hPa NW 4.8mph /  7.7km/h 17mph /  27.4km/h 32.3% 0.00in /  0mm 988 W/m2
12:19 82.2 °F /  27.9 °C 49.4 °F /  9.7 °C 30.23in /  1023.6hPa NW 5.4mph /  8.7km/h 17mph /  27.4km/h 32% 0.00in /  0mm 991 W/m2
12:24 81.9 °F /  27.7 °C 48.8 °F /  9.3 °C 30.23in /  1023.6hPa WNW 5.7mph /  9.2km/h 17mph /  27.4km/h 31.6% 0.00in /  0mm 991 W/m2
12:29 81.6 °F /  27.6 °C 47.7 °F /  8.7 °C 30.23in /  1023.6hPa NW 3.7mph /  6km/h 17mph /  27.4km/h 30.6% 0.00in /  0mm 1002 W/m2
12:34 81.5 °F /  27.5 °C 49.1 °F /  9.5 °C 30.23in /  1023.6hPa WNW 6mph /  9.7km/h 17mph /  27.4km/h 32.3% 0.00in /  0mm 1007 W/m2
12:39 81.7 °F /  27.6 °C 49.2 °F /  9.6 °C 30.22in /  1023.2hPa WNW 5.2mph /  8.4km/h 14mph /  22.5km/h 32.3% 0.00in /  0mm 1014 W/m2
12:44 81.8 °F /  27.7 °C 48.8 °F /  9.3 °C 30.22in /  1023.2hPa WNW 6.2mph /  10km/h 14mph /  22.5km/h 31.6% 0.00in /  0mm 1002 W/m2
12:49 81.8 °F /  27.7 °C 49.7 °F /  9.8 °C 30.22in /  1023.2hPa WNW 3.3mph /  5.3km/h 14mph /  22.5km/h 32.7% 0.00in /  0mm 1000 W/m2
12:54 82.1 °F /  27.8 °C 49.8 °F /  9.9 °C 30.22in /  1023.2hPa WNW 7.3mph /  11.7km/h 17mph /  27.4km/h 32.6% 0.00in /  0mm 1005 W/m2
12:59 82.1 °F /  27.8 °C 49.1 °F /  9.5 °C 30.22in /  1023.2hPa WNW 4mph /  6.4km/h 17mph /  27.4km/h 31.8% 0.00in /  0mm 1020 W/m2
13:04 82.2 °F /  27.9 °C 49.7 °F /  9.8 °C 30.21in /  1022.9hPa WNW 5.6mph /  9km/h 17mph /  27.4km/h 32.3% 0.00in /  0mm 1013 W/m2
13:09 82.5 °F /  28.1 °C 48.2 °F /  9 °C 30.21in /  1022.9hPa WNW 4.7mph /  7.6km/h 16mph /  25.7km/h 30.3% 0.00in /  0mm 1004 W/m2
13:14 82.6 °F /  28.1 °C 49.2 °F /  9.6 °C 30.21in /  1022.9hPa West 4.3mph /  6.9km/h 16mph /  25.7km/h 31.2% 0.00in /  0mm 997 W/m2
13:19 82.6 °F /  28.1 °C 48.2 °F /  9 °C 30.21in /  1022.9hPa WNW 6.1mph /  9.8km/h 18mph /  29km/h 30.1% 0.00in /  0mm 993 W/m2
13:24 82.7 °F /  28.2 °C 49.1 °F /  9.5 °C 30.21in /  1022.9hPa WNW 5.7mph /  9.2km/h 18mph /  29km/h 31.2% 0.00in /  0mm 997 W/m2
13:29 82.6 °F /  28.1 °C 47.4 °F /  8.6 °C 30.21in /  1022.9hPa WNW 7.3mph /  11.7km/h 18mph /  29km/h 29.2% 0.00in /  0mm 995 W/m2
13:34 82.3 °F /  27.9 °C 48 °F /  8.9 °C 30.20in /  1022.6hPa WNW 4.9mph /  7.9km/h 18mph /  29km/h 30.1% 0.00in /  0mm 997 W/m2
13:39 82.5 °F /  28.1 °C 50.1 °F /  10.1 °C 30.20in /  1022.6hPa WNW 3.4mph /  5.5km/h 14mph /  22.5km/h 32.5% 0.00in /  0mm 984 W/m2
13:44 82.8 °F /  28.2 °C 49.3 °F /  9.6 °C 30.20in /  1022.6hPa WNW 5.3mph /  8.5km/h 14mph /  22.5km/h 31.2% 0.00in /  0mm 951 W/m2
13:49 83 °F /  28.3 °C 48.9 °F /  9.4 °C 30.20in /  1022.6hPa West 3.2mph /  5.1km/h 14mph /  22.5km/h 30.6% 0.00in /  0mm 981 W/m2
13:54 83.2 °F /  28.4 °C 48.2 °F /  9 °C 30.19in /  1022.2hPa West 3.5mph /  5.6km/h 14mph /  22.5km/h 29.6% 0.00in /  0mm 983 W/m2
13:59 83.3 °F /  28.5 °C 49.3 °F /  9.6 °C 30.19in /  1022.2hPa WNW 5mph /  8km/h 15mph /  24.1km/h 30.8% 0.00in /  0mm 988 W/m2
14:04 83 °F /  28.3 °C 48 °F /  8.9 °C 30.19in /  1022.2hPa WNW 1.5mph /  2.4km/h 15mph /  24.1km/h 29.6% 0.00in /  0mm 1002 W/m2
14:09 83.1 °F /  28.4 °C 48 °F /  8.9 °C 30.18in /  1021.9hPa WSW 3.2mph /  5.1km/h 9mph /  14.5km/h 29.4% 0.00in /  0mm 1004 W/m2
14:14 83.4 °F /  28.6 °C 48 °F /  8.9 °C 30.19in /  1022.2hPa WNW 6.4mph /  10.3km/h 21mph /  33.8km/h 29.3% 0.00in /  0mm 947 W/m2
14:19 83.3 °F /  28.5 °C 47.5 °F /  8.6 °C 30.19in /  1022.2hPa WNW 6.4mph /  10.3km/h 21mph /  33.8km/h 28.7% 0.00in /  0mm 1021 W/m2
14:24 83.4 °F /  28.6 °C 47.6 °F /  8.7 °C 30.19in /  1022.2hPa WNW 3.9mph /  6.3km/h 21mph /  33.8km/h 28.8% 0.00in /  0mm 1000 W/m2
14:29 83.6 °F /  28.7 °C 48.2 °F /  9 °C 30.19in /  1022.2hPa WNW 4.5mph /  7.2km/h 21mph /  33.8km/h 29.2% 0.00in /  0mm 997 W/m2
14:34 83.5 °F /  28.6 °C 48.8 °F /  9.3 °C 30.19in /  1022.2hPa WNW 2.7mph /  4.3km/h 21mph /  33.8km/h 29.9% 0.00in /  0mm 958 W/m2
14:39 83.6 °F /  28.7 °C 49.2 °F /  9.6 °C 30.18in /  1021.9hPa WNW 5.1mph /  8.2km/h 13mph /  20.9km/h 30.3% 0.00in /  0mm 977 W/m2
14:44 83.5 °F /  28.6 °C 50 °F /  10 °C 30.18in /  1021.9hPa WNW 3.6mph /  5.8km/h 13mph /  20.9km/h 31.4% 0.00in /  0mm 977 W/m2
14:49 83.6 °F /  28.7 °C 49.7 °F /  9.8 °C 30.18in /  1021.9hPa WNW 4.8mph /  7.7km/h 15mph /  24.1km/h 30.9% 0.00in /  0mm 947 W/m2
14:54 83.9 °F /  28.8 °C 49.9 °F /  9.9 °C 30.18in /  1021.9hPa WNW 3.5mph /  5.6km/h 15mph /  24.1km/h 30.9% 0.00in /  0mm 856 W/m2
14:59 83.8 °F /  28.8 °C 48.9 °F /  9.4 °C 30.18in /  1021.9hPa WNW 5mph /  8km/h 15mph /  24.1km/h 29.8% 0.00in /  0mm 877 W/m2
15:04 83.2 °F /  28.4 °C 48.8 °F /  9.3 °C 30.17in /  1021.6hPa West 5.1mph /  8.2km/h 15mph /  24.1km/h 30.3% 0.00in /  0mm 907 W/m2
15:09 83.2 °F /  28.4 °C 49.7 °F /  9.8 °C 30.17in /  1021.6hPa West 3.5mph /  5.6km/h 15mph /  24.1km/h 31.3% 0.00in /  0mm 889 W/m2
15:14 83.5 °F /  28.6 °C 50.2 °F /  10.1 °C 30.17in /  1021.6hPa WNW 3.7mph /  6km/h 15mph /  24.1km/h 31.5% 0.00in /  0mm 877 W/m2
15:19 83.6 °F /  28.7 °C 48 °F /  8.9 °C 30.17in /  1021.6hPa WNW 7.5mph /  12.1km/h 16mph /  25.7km/h 29% 0.00in /  0mm 861 W/m2
15:24 83.3 °F /  28.5 °C 47.8 °F /  8.8 °C 30.16in /  1021.2hPa WNW 4.3mph /  6.9km/h 16mph /  25.7km/h 29% 0.00in /  0mm 830 W/m2
15:29 83.2 °F /  28.4 °C 48.7 °F /  9.3 °C 30.16in /  1021.2hPa NW 2.7mph /  4.3km/h 16mph /  25.7km/h 30.1% 0.00in /  0mm 816 W/m2
15:34 83.4 °F /  28.6 °C 49.9 °F /  9.9 °C 30.15in /  1020.9hPa NW 2.9mph /  4.7km/h 16mph /  25.7km/h 31.3% 0.00in /  0mm 816 W/m2
15:39 83.6 °F /  28.7 °C 49.2 °F /  9.6 °C 30.15in /  1020.9hPa WNW 5.4mph /  8.7km/h 16mph /  25.7km/h 30.3% 0.00in /  0mm 786 W/m2
15:44 83.5 °F /  28.6 °C 48.8 °F /  9.3 °C 30.15in /  1020.9hPa WNW 7.7mph /  12.4km/h 16mph /  25.7km/h 29.9% 0.00in /  0mm 777 W/m2
15:49 83.3 °F /  28.5 °C 48.8 °F /  9.3 °C 30.15in /  1020.9hPa WNW 7mph /  11.3km/h 16mph /  25.7km/h 30.1% 0.00in /  0mm 765 W/m2
15:54 83 °F /  28.3 °C 48 °F /  8.9 °C 30.15in /  1020.9hPa WNW 6.3mph /  10.1km/h 16mph /  25.7km/h 29.6% 0.00in /  0mm 738 W/m2
15:59 82.9 °F /  28.3 °C 49 °F /  9.4 °C 30.15in /  1020.9hPa WNW 3.8mph /  6.1km/h 16mph /  25.7km/h 30.8% 0.00in /  0mm 738 W/m2
16:00 82.9 °F /  28.3 °C 48.3 °F /  9.1 °C 30.14in /  1020.5hPa WNW 2mph /  3.2km/h 16mph /  25.7km/h 30% 0.00in /  0mm 738 W/m2
16:09 82.9 °F /  28.3 °C 49.8 °F /  9.9 °C 30.14in /  1020.5hPa WNW 3.1mph /  5km/h 11mph /  17.7km/h 31.7% 0.00in /  0mm 693 W/m2
16:14 82.8 °F /  28.2 °C 50.2 °F /  10.1 °C 30.14in /  1020.5hPa West 1.8mph /  2.9km/h 11mph /  17.7km/h 32.3% 0.00in /  0mm 83 W/m2
16:19 82.8 °F /  28.2 °C 49.5 °F /  9.7 °C 30.14in /  1020.5hPa WNW 6.6mph /  10.6km/h 17mph /  27.4km/h 31.5% 0.00in /  0mm 79 W/m2
16:24 82.8 °F /  28.2 °C 49.1 °F /  9.5 °C 30.14in /  1020.5hPa WNW 5.5mph /  8.9km/h 17mph /  27.4km/h 31% 0.00in /  0mm 90 W/m2
16:29 82.7 °F /  28.2 °C 48.7 °F /  9.3 °C 30.14in /  1020.5hPa WNW 4.8mph /  7.7km/h 17mph /  27.4km/h 30.7% 0.00in /  0mm 86 W/m2
16:34 82.6 °F /  28.1 °C 49.5 °F /  9.7 °C 30.14in /  1020.5hPa West 2.8mph /  4.5km/h 17mph /  27.4km/h 31.7% 0.00in /  0mm 76 W/m2
16:39 82.6 °F /  28.1 °C 49.7 °F /  9.8 °C 30.14in /  1020.5hPa NW 5.1mph /  8.2km/h 12mph /  19.3km/h 31.9% 0.00in /  0mm 74 W/m2
16:44 82.5 °F /  28.1 °C 49.2 °F /  9.6 °C 30.13in /  1020.2hPa WNW 3.4mph /  5.5km/h 12mph /  19.3km/h 31.4% 0.00in /  0mm 74 W/m2
16:45 82.5 °F /  28.1 °C 48.8 °F /  9.3 °C 30.13in /  1020.2hPa WNW 3.6mph /  5.8km/h 12mph /  19.3km/h 31% 0.00in /  0mm 72 W/m2
17:00 82.4 °F /  28 °C 49.6 °F /  9.8 °C 30.13in /  1020.2hPa WNW 4mph /  6.4km/h 21mph /  33.8km/h 32% 0.00in /  0mm 71 W/m2
17:30 82 °F /  27.8 °C 50.1 °F /  10.1 °C 30.12in /  1019.9hPa WNW 4mph /  6.4km/h 15mph /  24.1km/h 33% 0.00in /  0mm 64 W/m2
18:00 81.7 °F /  27.6 °C 49.8 °F /  9.9 °C 30.12in /  1019.9hPa WNW 3mph /  4.8km/h 15mph /  24.1km/h 33% 0.00in /  0mm 77 W/m2
18:30 81.3 °F /  27.4 °C 51.1 °F /  10.6 °C 30.13in /  1020.2hPa WNW 2mph /  3.2km/h 10mph /  16.1km/h 35% 0.00in /  0mm 79 W/m2
19:00 80.7 °F /  27.1 °C 49.8 °F /  9.9 °C 30.14in /  1020.5hPa WNW 2mph /  3.2km/h 11mph /  17.7km/h 34% 0.00in /  0mm 46 W/m2
19:30 79.3 °F /  26.3 °C 48.5 °F /  9.2 °C 30.13in /  1020.2hPa WNW 1mph /  1.6km/h 7mph /  11.3km/h 34% 0.00in /  0mm 35 W/m2
20:04 77.7 °F /  25.4 °C 49.3 °F /  9.6 °C 30.14in /  1020.5hPa Calm   1mph /  1.6km/h 37% 0.00in /  0mm 0 W/m2
20:09 77.4 °F /  25.2 °C 49.5 °F /  9.7 °C 30.14in /  1020.5hPa Calm   1mph /  1.6km/h 37.6% 0.00in /  0mm 0 W/m2
20:14 77 °F /  25 °C 49.5 °F /  9.7 °C 30.14in /  1020.5hPa Calm   1mph /  1.6km/h 38% 0.00in /  0mm 0 W/m2
20:19 76.5 °F /  24.7 °C 49.6 °F /  9.8 °C 30.13in /  1020.2hPa Calm   1mph /  1.6km/h 38.9% 0.00in /  0mm 0 W/m2
20:24 75.9 °F /  24.4 °C 49.8 °F /  9.9 °C 30.14in /  1020.5hPa Calm   1mph /  1.6km/h 39.9% 0.00in /  0mm 0 W/m2
20:29 75.6 °F /  24.2 °C 49.6 °F /  9.8 °C 30.14in /  1020.5hPa Calm   1mph /  1.6km/h 40% 0.00in /  0mm 0 W/m2
20:34 75.2 °F /  24 °C 49.4 °F /  9.7 °C 30.14in /  1020.5hPa Calm   1mph /  1.6km/h 40.3% 0.00in /  0mm 0 W/m2
20:39 74.8 °F /  23.8 °C 49.6 °F /  9.8 °C 30.14in /  1020.5hPa Calm     41.1% 0.00in /  0mm 0 W/m2
20:44 74.5 °F /  23.6 °C 49.9 °F /  9.9 °C 30.14in /  1020.5hPa Calm     42% 0.00in /  0mm 0 W/m2
20:49 74.1 °F /  23.4 °C 50.1 °F /  10.1 °C 30.14in /  1020.5hPa Calm     42.9% 0.00in /  0mm 0 W/m2
20:54 73.7 °F /  23.2 °C 50.1 °F /  10.1 °C 30.14in /  1020.5hPa Calm     43.4% 0.00in /  0mm 0 W/m2
20:59 73.4 °F /  23 °C 50.4 °F /  10.2 °C 30.15in /  1020.9hPa Calm     44.3% 0.00in /  0mm 0 W/m2
21:04 73 °F /  22.8 °C 50.5 °F /  10.3 °C 30.15in /  1020.9hPa Calm     45% 0.00in /  0mm 0 W/m2
21:09 72.7 °F /  22.6 °C 50.7 °F /  10.4 °C 30.16in /  1021.2hPa Calm     45.9% 0.00in /  0mm 0 W/m2
21:14 72.3 °F /  22.4 °C 51.2 °F /  10.7 °C 30.16in /  1021.2hPa Calm     47.3% 0.00in /  0mm 0 W/m2
21:19 71.9 °F /  22.2 °C 51.2 °F /  10.7 °C 30.16in /  1021.2hPa Calm     48% 0.00in /  0mm 0 W/m2
21:24 71.6 °F /  22 °C 50.8 °F /  10.4 °C 30.16in /  1021.2hPa Calm     48% 0.00in /  0mm 0 W/m2
21:29 71.2 °F /  21.8 °C 50.6 °F /  10.3 °C 30.16in /  1021.2hPa Calm     48.1% 0.00in /  0mm 0 W/m2
21:32 71 °F /  21.7 °C 50.4 °F /  10.2 °C 30.16in /  1021.2hPa Calm     48% 0.00in /  0mm 0 W/m2
22:00 69.7 °F /  20.9 °C 50.3 °F /  10.2 °C 30.17in /  1021.6hPa Calm     50% 0.00in /  0mm 0 W/m2
22:30 69.3 °F /  20.7 °C 49.3 °F /  9.6 °C 30.17in /  1021.6hPa Calm   2mph /  3.2km/h 49% 0.00in /  0mm 0 W/m2
23:00 68 °F /  20 °C 50.8 °F /  10.4 °C 30.17in /  1021.6hPa Calm   1mph /  1.6km/h 54% 0.00in /  0mm 0 W/m2
23:30 67.2 °F /  19.6 °C 49.5 °F /  9.7 °C 30.17in /  1021.6hPa Calm   2mph /  3.2km/h 53% 0.00in /  0mm 0 W/m2
Hartford County Weather
Compliments of Weather Underground - 4 mb